Time;durP1;ratioP1;P1;durP2;ratioP2;P2;SDS_P1;SDS_P2;PMS_P1;PMS_P2;Temp;Humidity;BMP_temperature;BMP_pressure;BME280_temperature;BME280_humidity;BME280_pressure;Samples;Min_cycle;Max_cycle;Signal;HPM_P1;HPM_P2
2022/07/04 00:01:18;;;;;;;2.83;2.10;;;21.60;56.70;;;21.86;48.56;97835.34;5027116;28;20367;-47
2022/07/04 00:03:46;;;;;;;3.28;2.28;;;21.60;56.60;;;21.75;48.69;97828.78;5027171;28;20080;-46
2022/07/04 00:06:14;;;;;;;4.10;2.10;;;21.60;56.40;;;21.77;48.25;97829.38;5027706;28;20049;-47
2022/07/04 00:08:42;;;;;;;2.97;2.15;;;21.60;56.20;;;21.83;48.55;97825.78;5026008;28;20340;-45
2022/07/04 00:11:10;;;;;;;2.65;2.10;;;21.60;56.00;;;21.83;48.74;97817.66;5026836;28;20692;-47
2022/07/04 00:13:38;;;;;;;2.60;1.85;;;21.60;56.20;;;21.65;48.67;97820.38;5026042;28;20053;-46
2022/07/04 00:16:06;;;;;;;3.00;2.28;;;21.50;56.50;;;21.59;48.48;97812.09;5027875;28;20263;-52
2022/07/04 00:18:34;;;;;;;3.70;2.08;;;21.40;56.20;;;21.63;49.00;97805.19;5026603;28;20435;-48
2022/07/04 00:21:02;;;;;;;3.65;2.20;;;21.50;56.60;;;21.56;48.63;97809.88;5025409;28;20382;-47
2022/07/04 00:23:30;;;;;;;2.58;2.08;;;21.40;56.80;;;21.72;48.64;97803.00;5025189;28;20377;-48
2022/07/04 00:25:58;;;;;;;3.67;2.30;;;21.50;56.20;;;21.57;48.67;97797.97;5026847;28;20057;-47
2022/07/04 00:28:25;;;;;;;3.53;2.38;;;21.40;56.60;;;21.58;48.87;97802.34;5026601;28;20053;-46
2022/07/04 00:30:53;;;;;;;3.42;2.13;;;21.40;56.60;;;21.65;48.79;97809.56;5026189;28;20071;-47
2022/07/04 00:33:21;;;;;;;3.20;2.20;;;21.50;56.30;;;21.32;49.62;97817.00;5025579;28;20041;-48
2022/07/04 00:35:49;;;;;;;2.78;2.08;;;21.20;57.10;;;21.32;49.79;97810.75;5026792;28;20058;-50
2022/07/04 00:38:17;;;;;;;2.42;2.00;;;21.20;57.60;;;21.28;49.48;97814.97;5025909;28;20079;-46
2022/07/04 00:40:44;;;;;;;3.38;2.50;;;21.10;57.50;;;21.43;48.84;97810.84;5026310;28;20054;-47
2022/07/04 00:43:12;;;;;;;4.70;2.13;;;21.30;57.00;;;21.57;48.91;97816.94;5025836;28;20051;-48
2022/07/04 00:45:40;;;;;;;2.22;2.03;;;21.40;56.30;;;21.60;48.62;97821.09;5027151;28;20255;-47
2022/07/04 00:48:08;;;;;;;3.70;2.15;;;21.40;56.70;;;21.60;48.59;97832.72;5024253;28;20060;-48
2022/07/04 00:50:36;;;;;;;4.40;2.22;;;21.40;56.60;;;21.66;48.36;97832.88;5025377;28;20051;-46
2022/07/04 00:53:04;;;;;;;2.78;2.10;;;21.40;56.10;;;21.65;48.63;97832.03;5042502;28;20252;-51
2022/07/04 00:55:33;;;;;;;4.45;3.00;;;21.50;56.10;;;21.61;48.76;97836.25;5045340;28;20331;-50
2022/07/04 00:58:01;;;;;;;2.72;2.25;;;21.40;56.50;;;21.57;48.75;97835.06;5030123;28;20042;-47
2022/07/04 01:00:29;;;;;;;2.67;1.88;;;21.30;56.40;;;21.47;48.99;97821.25;5029657;28;20258;-46
2022/07/04 01:02:57;;;;;;;3.28;2.13;;;21.20;57.20;;;21.38;48.98;97823.38;5029802;28;20048;-48
2022/07/04 01:05:25;;;;;;;3.83;2.10;;;21.10;57.00;;;21.32;49.27;97827.00;5030996;28;20250;-47
2022/07/04 01:07:53;;;;;;;2.95;1.90;;;21.00;57.40;;;21.23;49.34;97823.78;5044089;28;20057;-48
2022/07/04 01:10:21;;;;;;;3.25;2.88;;;21.00;57.40;;;21.19;49.36;97822.53;5029628;28;20071;-46
2022/07/04 01:12:49;;;;;;;3.33;2.40;;;20.90;57.70;;;21.21;49.26;97820.47;5029940;28;20071;-49
2022/07/04 01:15:17;;;;;;;3.60;2.70;;;20.90;57.40;;;21.13;49.42;97831.56;5031604;28;20061;-48
2022/07/04 01:17:45;;;;;;;3.00;2.40;;;20.80;57.50;;;21.19;49.41;97830.66;5029744;28;20045;-49
2022/07/04 01:20:13;;;;;;;2.50;1.90;;;20.90;57.40;;;21.08;49.99;97834.16;5029457;28;20065;-47
2022/07/04 01:22:42;;;;;;;3.42;2.38;;;20.80;58.00;;;21.17;49.42;97830.06;5043929;28;20061;-47
2022/07/04 01:25:09;;;;;;;2.72;1.98;;;20.80;57.50;;;21.14;49.55;97822.41;5031157;28;20067;-50
2022/07/04 01:27:37;;;;;;;3.03;1.85;;;20.80;58.50;;;21.09;50.33;97822.25;5030515;28;20063;-50
2022/07/04 01:30:06;;;;;;;3.05;2.13;;;20.80;59.10;;;21.11;49.90;97820.16;5030075;28;20052;-45
2022/07/04 01:32:34;;;;;;;3.25;2.20;;;20.70;58.80;;;21.07;50.31;97836.00;5028850;28;20056;-49
2022/07/04 01:35:02;;;;;;;2.72;2.50;;;20.70;58.90;;;21.10;49.92;97827.44;5028560;28;20056;-40
2022/07/04 01:37:30;;;;;;;2.67;2.20;;;20.80;59.00;;;20.87;50.74;97827.28;5029016;28;20056;-40
2022/07/04 01:39:57;;;;;;;4.90;2.17;;;20.50;60.50;;;20.83;50.79;97832.28;5028983;28;20058;-40
2022/07/04 01:42:25;;;;;;;4.95;2.17;;;20.50;59.90;;;20.76;51.23;97837.78;5028622;28;20047;-40
2022/07/04 01:44:53;;;;;;;2.58;2.38;;;20.40;60.70;;;20.82;50.80;97838.75;5029433;28;20360;-40
2022/07/04 01:47:21;;;;;;;4.35;2.40;;;20.40;60.10;;;20.79;51.00;97839.19;5029668;28;20262;-40
2022/07/04 01:49:49;;;;;;;2.90;2.03;;;20.40;60.40;;;20.78;51.09;97840.25;5027592;28;20071;-40
2022/07/04 01:52:17;;;;;;;6.63;2.80;;;20.40;60.10;;;20.88;50.53;97840.59;5030603;28;20270;-40
2022/07/04 01:54:44;;;;;;;2.85;2.25;;;20.50;59.70;;;20.91;51.02;97842.81;5029359;28;20057;-40
2022/07/04 01:57:13;;;;;;;3.97;2.47;;;20.60;59.70;;;20.71;51.35;97844.91;5029183;28;20050;-40
2022/07/04 02:02:27;;;;;;;4.15;2.63;;;20.30;60.70;;;20.61;51.51;97850.81;5026941;28;20294;-40
2022/07/04 02:04:55;;;;;;;2.45;2.25;;;20.20;61.00;;;20.51;51.73;97855.81;5028794;28;20239;-41
2022/07/04 02:07:23;;;;;;;3.47;2.10;;;20.10;61.30;;;20.47;51.86;97852.72;5028880;28;20041;-40
2022/07/04 02:09:51;;;;;;;4.18;2.17;;;20.10;61.80;;;20.41;51.95;97845.50;5028987;28;20053;-41
2022/07/04 02:15:06;;;;;;;4.13;2.22;;;20.10;61.10;;;20.48;51.84;97861.69;5028013;28;20041;-40
2022/07/04 02:17:34;;;;;;;2.35;2.08;;;20.10;61.20;;;20.51;51.54;97855.81;5029327;28;20058;-41
2022/07/04 02:20:04;;;;;;;5.20;2.40;;;20.20;61.10;;;20.48;51.75;97854.41;5028722;28;20240;-41
2022/07/04 02:22:32;;;;;;;6.10;2.50;;;20.20;61.40;;;20.30;51.92;97854.31;5029739;28;20608;-41
2022/07/04 02:25:00;;;;;;;5.47;2.38;;;20.00;61.30;;;20.39;51.32;97867.34;5028419;28;20080;-41
2022/07/04 02:27:28;;;;;;;3.63;2.35;;;20.00;60.80;;;20.36;51.45;97856.97;5028152;28;20366;-41
2022/07/04 02:29:56;;;;;;;4.28;2.38;;;20.10;60.90;;;20.34;51.66;97859.09;5028726;28;20056;-41
2022/07/04 02:32:24;;;;;;;4.47;2.30;;;20.00;61.00;;;20.34;51.97;97864.50;5029482;28;20052;-41
2022/07/04 02:34:52;;;;;;;4.25;2.20;;;20.00;61.30;;;20.37;51.75;97877.56;5029038;28;20059;-41
2022/07/04 02:37:19;;;;;;;4.78;2.10;;;20.10;61.10;;;20.26;52.04;97868.28;5028714;28;20263;-41
2022/07/04 02:39:47;;;;;;;2.42;2.20;;;20.00;61.40;;;20.32;51.97;97876.56;5027696;28;20065;-41
2022/07/04 02:42:15;;;;;;;4.30;2.53;;;20.00;61.50;;;20.24;51.98;97872.25;5028772;28;20045;-41
2022/07/04 02:44:44;;;;;;;3.47;1.90;;;19.90;61.80;;;19.94;53.48;97880.09;5029068;28;20049;-41
2022/07/04 02:47:12;;;;;;;2.30;2.10;;;19.80;63.30;;;19.88;53.59;97881.78;5028517;28;20042;-41
2022/07/04 02:49:40;;;;;;;2.65;2.15;;;19.70;63.90;;;19.80;53.74;97885.56;5028393;28;20180;-41
2022/07/04 02:52:08;;;;;;;5.05;2.20;;;19.50;64.30;;;19.66;54.24;97883.94;5043821;28;20344;-39
2022/07/04 02:54:36;;;;;;;4.78;2.38;;;19.50;64.80;;;19.73;54.08;97882.06;5028493;28;20052;-40
2022/07/04 02:57:04;;;;;;;3.97;2.30;;;19.50;64.30;;;19.72;53.76;97885.00;5029476;28;20052;-40
2022/07/04 02:59:32;;;;;;;4.65;2.60;;;19.50;64.20;;;19.78;53.69;97887.66;5042052;28;20053;-40
2022/07/04 03:02:00;;;;;;;3.72;2.60;;;19.50;64.20;;;19.88;53.37;97883.69;5027698;28;20055;-40
2022/07/04 03:04:28;;;;;;;6.13;2.40;;;19.60;64.10;;;19.94;53.22;97878.22;5027981;28;20053;-40
2022/07/04 03:06:56;;;;;;;3.60;2.15;;;19.60;63.70;;;19.99;52.96;97883.00;5028938;28;20252;-40
2022/07/04 03:09:27;;;;;;;4.53;2.42;;;19.70;63.50;;;19.92;53.21;97887.59;5028504;28;20348;-41
2022/07/04 03:11:55;;;;;;;3.10;2.10;;;19.50;65.10;;;19.85;53.43;97879.50;5027874;28;20297;-40
2022/07/04 03:14:23;;;;;;;4.55;2.45;;;19.40;64.50;;;19.86;52.94;97882.00;5028254;28;20060;-40
2022/07/04 03:16:51;;;;;;;5.80;2.65;;;19.50;64.10;;;19.77;53.66;97893.25;5026106;28;20053;-40
2022/07/04 03:19:18;;;;;;;4.32;2.30;;;19.40;64.80;;;19.82;53.26;97896.16;5027902;28;20049;-41
2022/07/04 03:21:46;;;;;;;5.43;2.83;;;19.40;64.20;;;19.70;53.61;97898.69;5027396;28;20068;-41
2022/07/04 03:24:14;;;;;;;3.88;2.60;;;19.30;64.80;;;19.55;54.08;97901.63;5028040;28;20057;-40
2022/07/04 03:26:42;;;;;;;3.63;2.75;;;19.20;66.30;;;19.47;54.40;97901.88;5028465;28;20149;-40
2022/07/04 03:29:10;;;;;;;3.53;2.50;;;19.10;66.50;;;19.41;54.42;97905.41;5027240;28;20065;-40
2022/07/04 03:31:38;;;;;;;3.88;2.20;;;19.00;66.90;;;19.44;54.33;97918.47;5027496;28;20569;-40
2022/07/04 03:34:06;;;;;;;4.28;3.15;;;19.00;66.30;;;19.32;54.69;97921.00;5028526;28;20055;-40
2022/07/04 03:36:34;;;;;;;6.13;2.55;;;19.00;66.40;;;19.35;54.49;97919.72;5026573;28;20052;-40
2022/07/04 03:39:03;;;;;;;4.05;2.47;;;19.00;66.70;;;19.38;54.16;97917.44;5027774;28;20045;-40
2022/07/04 03:41:31;;;;;;;4.05;2.35;;;19.00;66.70;;;19.44;53.99;97916.63;5027294;28;20045;-40
2022/07/04 03:43:58;;;;;;;4.38;2.33;;;19.10;65.60;;;19.42;54.26;97926.78;5027486;28;20057;-41
2022/07/04 03:46:26;;;;;;;6.43;2.67;;;19.10;65.60;;;19.46;54.07;97916.38;5027263;28;20253;-41
2022/07/04 03:48:55;;;;;;;2.63;2.20;;;19.00;65.80;;;19.48;53.85;97915.16;5027555;28;20046;-41
2022/07/04 03:51:23;;;;;;;5.07;2.33;;;19.00;65.50;;;19.39;54.00;97929.91;5025011;28;20057;-41
2022/07/04 03:53:51;;;;;;;2.47;2.28;;;19.00;65.70;;;19.37;54.08;97921.19;5027108;28;20061;-41
2022/07/04 03:56:19;;;;;;;4.38;2.20;;;19.00;65.80;;;19.35;54.27;97919.72;5028128;28;20053;-41
2022/07/04 03:58:48;;;;;;;3.10;2.45;;;18.90;66.60;;;19.31;54.28;97922.03;5026772;28;20049;-41
2022/07/04 04:01:18;;;;;;;3.35;2.53;;;18.80;66.50;;;19.31;54.28;97923.91;5027157;28;20054;-41
2022/07/04 04:06:33;;;;;;;2.60;2.40;;;18.70;67.20;;;19.22;54.56;97932.22;5026243;28;20264;-41
2022/07/04 04:09:00;;;;;;;2.55;1.90;;;18.80;66.60;;;19.30;54.35;97935.75;5026873;28;20068;-41
2022/07/04 04:11:34;;;;;;;3.45;2.08;;;18.90;66.30;;;19.29;54.21;97929.53;5027313;28;20356;-41
2022/07/04 04:14:02;;;;;;;3.10;2.45;;;18.90;66.20;;;19.21;54.49;97930.56;5028019;28;20090;-46
2022/07/04 04:16:30;;;;;;;3.75;2.10;;;18.80;66.70;;;19.03;55.25;97933.06;5025863;28;20042;-41
2022/07/04 04:18:58;;;;;;;4.95;2.20;;;18.60;68.20;;;18.93;55.41;97933.47;5027551;28;20071;-41
2022/07/04 04:21:26;;;;;;;5.03;2.78;;;18.50;68.20;;;18.93;55.51;97938.06;5027198;28;20254;-41
2022/07/04 04:23:54;;;;;;;3.00;2.30;;;18.60;68.10;;;19.01;55.17;97938.66;5027365;28;20564;-41
2022/07/04 04:26:22;;;;;;;4.75;2.22;;;18.60;67.60;;;18.99;55.36;97940.75;5026038;28;20049;-40
2022/07/04 04:28:49;;;;;;;2.97;2.20;;;18.60;67.80;;;18.94;55.55;97950.50;5041217;28;20051;-41
2022/07/04 04:31:17;;;;;;;3.67;2.08;;;18.60;67.90;;;18.99;55.45;97953.41;5026534;28;20048;-41
2022/07/04 04:33:45;;;;;;;3.85;2.70;;;18.70;67.90;;;19.04;55.36;97959.03;5026451;28;20049;-41
2022/07/04 04:36:13;;;;;;;3.47;2.40;;;18.70;67.90;;;19.00;55.32;97968.53;5027370;28;20041;-41
2022/07/04 04:38:41;;;;;;;10.60;2.95;;;18.70;67.50;;;19.12;55.26;97975.00;5025485;28;20063;-41
2022/07/04 04:41:09;;;;;;;3.35;2.22;;;18.90;67.00;;;19.29;54.73;97980.81;5027251;28;20056;-41
2022/07/04 04:43:37;;;;;;;3.83;2.30;;;19.10;66.00;;;19.36;54.39;97978.91;5025490;28;20049;-41
2022/07/04 04:46:05;;;;;;;4.63;2.20;;;19.10;65.20;;;19.27;54.50;97989.09;5026073;28;20255;-41
2022/07/04 04:48:33;;;;;;;3.38;2.35;;;19.10;65.60;;;19.32;54.28;97993.03;5026028;28;20053;-41
2022/07/04 04:51:00;;;;;;;2.40;2.13;;;19.00;65.30;;;19.34;54.09;97990.97;5026366;28;20060;-40
2022/07/04 04:53:36;;;;;;;3.50;2.40;;;19.00;65.30;;;19.32;54.03;97993.03;5025754;28;20080;-39
2022/07/04 04:56:04;;;;;;;3.45;2.10;;;18.90;66.50;;;19.17;54.60;97988.69;5026987;28;20055;-41
2022/07/04 04:58:32;;;;;;;5.25;2.50;;;18.80;66.00;;;19.16;54.42;97988.91;5026824;28;20374;-40
2022/07/04 05:01:02;;;;;;;4.05;2.00;;;18.80;66.00;;;19.16;54.35;97999.69;5026825;28;20703;-40
2022/07/04 05:03:50;;;;;;;3.10;1.83;;;18.80;66.10;;;19.13;54.47;98000.09;5026520;28;20288;-40
2022/07/04 05:06:18;;;;;;;3.72;2.30;;;18.80;66.10;;;19.12;54.51;97996.59;5027393;28;20061;-40
2022/07/04 05:08:46;;;;;;;4.90;2.45;;;18.70;66.00;;;19.11;54.28;97996.78;5040005;28;20050;-39
2022/07/04 05:11:14;;;;;;;3.03;2.17;;;18.70;65.50;;;19.13;54.11;98000.94;5023925;28;20050;-40
2022/07/04 05:13:42;;;;;;;4.55;2.13;;;18.80;65.10;;;19.16;54.27;97999.69;5042355;28;20046;-40
2022/07/04 05:16:10;;;;;;;3.60;2.47;;;18.80;65.20;;;19.16;54.39;98003.22;5026732;28;20049;-40
2022/07/04 05:18:38;;;;;;;4.68;2.30;;;18.80;65.10;;;19.14;53.97;97997.19;5026247;28;20397;-40
2022/07/04 05:21:06;;;;;;;3.55;2.20;;;18.90;65.30;;;19.05;54.38;97999.25;5026635;28;20672;-40
2022/07/04 05:23:34;;;;;;;2.72;2.05;;;18.80;65.00;;;19.07;54.34;98002.59;5025715;28;20467;-39
2022/07/04 05:26:02;;;;;;;2.40;2.00;;;18.80;65.30;;;19.20;54.15;98001.78;5026265;28;20240;-40
2022/07/04 05:28:30;;;;;;;3.20;1.98;;;19.00;65.00;;;19.18;54.45;98006.53;5026863;28;20060;-40
2022/07/04 05:30:57;;;;;;;4.78;2.47;;;19.00;65.10;;;19.33;53.83;98000.94;5027196;28;20239;-41
2022/07/04 05:33:25;;;;;;;3.15;1.95;;;19.20;64.30;;;19.47;53.65;97997.19;5025592;28;20056;-40
2022/07/04 05:35:53;;;;;;;2.35;1.98;;;19.30;63.60;;;19.49;53.65;97996.97;5025961;28;20053;-40
2022/07/04 05:38:21;;;;;;;3.88;1.77;;;19.40;63.60;;;19.40;53.37;97990.13;5026142;28;20049;-40
2022/07/04 05:40:49;;;;;;;5.00;2.08;;;19.20;63.00;;;19.43;53.13;97989.72;5027905;28;20053;-40
2022/07/04 05:43:17;;;;;;;2.50;1.90;;;19.20;63.00;;;19.50;52.98;97990.53;5029264;28;20060;-40
2022/07/04 05:45:45;;;;;;;3.33;2.05;;;19.30;62.60;;;19.55;52.94;97998.84;5030670;28;20049;-40
2022/07/04 05:48:13;;;;;;;4.25;2.05;;;19.40;62.20;;;19.53;52.71;97995.50;5029314;28;20079;-40
2022/07/04 05:50:40;;;;;;;3.80;2.05;;;19.40;61.60;;;19.68;52.56;97992.59;5029499;28;20062;-40
2022/07/04 05:53:08;;;;;;;3.28;1.88;;;19.50;61.70;;;19.77;52.42;97988.63;5029185;28;20053;-40
2022/07/04 05:55:37;;;;;;;4.15;2.30;;;19.70;61.50;;;19.72;52.27;97993.03;5029765;28;20083;-40
2022/07/04 05:58:05;;;;;;;3.05;1.73;;;19.60;61.00;;;19.78;52.20;97997.59;5018329;28;20049;-40
2022/07/04 06:00:34;;;;;;;6.40;2.95;;;19.70;61.20;;;19.83;52.55;97995.91;5008345;28;20046;-40
2022/07/04 06:03:02;;;;;;;3.55;2.20;;;19.80;61.10;;;19.84;52.10;97984.03;5007652;28;20056;-40
2022/07/04 06:05:30;;;;;;;5.00;2.40;;;19.70;60.70;;;19.93;52.04;97990.06;5010543;28;20260;-40
2022/07/04 06:07:58;;;;;;;3.65;2.17;;;19.80;61.00;;;19.83;52.25;97989.66;5009647;28;20208;-40
2022/07/04 06:10:26;;;;;;;3.22;1.80;;;19.70;61.00;;;19.72;52.53;97985.75;5009683;28;20055;-41
2022/07/04 06:12:54;;;;;;;2.95;1.83;;;19.60;61.20;;;19.76;52.22;97988.88;5009618;28;20054;-40
2022/07/04 06:15:22;;;;;;;3.28;2.05;;;19.60;61.30;;;19.65;52.32;97988.41;5009774;28;20170;-40
2022/07/04 06:17:50;;;;;;;2.90;1.85;;;19.50;61.40;;;19.78;52.29;97984.06;5007927;28;20052;-41
2022/07/04 06:20:18;;;;;;;4.35;2.15;;;19.60;60.80;;;19.73;52.41;97978.47;5008970;28;20050;-40
2022/07/04 06:22:48;;;;;;;2.65;1.83;;;19.60;61.50;;;19.70;52.54;97985.09;5008947;28;20052;-41
2022/07/04 06:25:19;;;;;;;3.65;2.20;;;19.60;61.50;;;19.57;52.58;97980.56;5008724;28;20056;-41
2022/07/04 06:27:49;;;;;;;3.10;1.83;;;19.50;61.70;;;19.65;52.64;97983.00;5008267;28;20068;-41
2022/07/04 06:30:17;;;;;;;2.67;1.80;;;19.50;62.00;;;19.62;52.90;97990.75;5008580;28;20240;-41
2022/07/04 06:32:54;;;;;;;4.22;2.38;;;19.50;62.10;;;19.70;52.67;97986.94;5008809;28;20054;-40
2022/07/04 06:38:20;;;;;;;7.97;2.13;;;19.60;61.90;;;19.37;52.93;97993.25;5008120;28;20045;-41
2022/07/04 06:40:50;;;;;;;4.40;2.28;;;19.30;61.90;;;19.56;52.68;97978.91;5008198;28;20048;-40
2022/07/04 06:43:18;;;;;;;2.53;2.03;;;19.50;61.80;;;19.56;52.75;97987.00;5009238;28;20041;-40
2022/07/04 06:45:46;;;;;;;2.67;2.28;;;19.50;61.60;;;19.66;52.52;97987.38;5008694;28;20378;-40
2022/07/04 06:48:15;;;;;;;5.97;2.00;;;19.60;62.50;;;19.81;52.61;97997.16;5008998;28;20054;-40
2022/07/04 06:50:45;;;;;;;5.72;1.92;;;19.80;61.40;;;19.74;52.30;97986.38;5004674;28;20385;-40
2022/07/04 06:53:13;;;;;;;3.05;2.05;;;19.70;61.00;;;19.73;52.53;97990.09;5007491;28;20060;-41
2022/07/04 06:55:42;;;;;;;4.28;2.05;;;19.60;61.10;;;19.86;52.64;97990.06;5009585;28;20364;-40
2022/07/04 06:58:12;;;;;;;2.95;2.13;;;19.80;61.40;;;19.99;52.59;97991.09;5006782;28;20049;-40
2022/07/04 07:00:41;;;;;;;5.80;2.05;;;19.90;61.30;;;20.09;52.19;97991.47;5007957;28;20240;-40
2022/07/04 07:03:09;;;;;;;2.40;2.05;;;20.00;60.40;;;20.17;51.94;97991.22;5007928;28;20338;-41
2022/07/04 07:05:37;;;;;;;5.70;2.25;;;20.20;60.30;;;20.25;51.77;97992.84;5008868;28;20049;-41
2022/07/04 07:08:26;;;;;;;6.03;2.05;;;20.20;59.90;;;20.32;51.75;97993.66;5007135;28;20255;-41
2022/07/04 07:11:12;;;;;;;3.25;2.15;;;20.20;59.90;;;20.36;51.81;97994.88;5007207;28;20554;-41
2022/07/04 07:13:47;;;;;;;3.53;2.00;;;20.30;60.10;;;20.41;51.27;97988.81;5007496;28;20057;-40
2022/07/04 07:16:15;;;;;;;4.65;2.15;;;20.40;59.70;;;20.38;51.21;97990.06;5007748;28;20060;-40
2022/07/04 07:18:44;;;;;;;3.15;2.00;;;20.30;59.30;;;20.32;51.76;97987.41;5007255;28;20371;-41
2022/07/04 07:21:12;;;;;;;5.45;2.60;;;20.20;60.10;;;20.42;51.93;97985.06;5007639;28;20061;-41
2022/07/04 07:23:43;;;;;;;3.05;2.20;;;20.30;60.40;;;20.52;51.40;97985.41;5006818;28;20041;-40
2022/07/04 07:26:12;;;;;;;5.40;2.60;;;20.50;59.60;;;20.46;51.15;97980.88;5008669;28;20056;-41
2022/07/04 07:28:40;;;;;;;4.85;2.30;;;20.40;59.30;;;20.52;50.94;97980.00;5007243;28;20064;-40
2022/07/04 07:31:08;;;;;;;5.82;2.15;;;20.40;59.30;;;20.44;51.14;97978.38;5007339;28;20068;-41
2022/07/04 07:33:36;;;;;;;2.58;2.13;;;20.30;59.70;;;20.39;51.25;97980.91;5008470;28;20609;-41
2022/07/04 07:36:04;;;;;;;3.83;2.78;;;20.20;59.30;;;20.30;51.43;97981.38;5008593;28;20064;-40
2022/07/04 07:38:32;;;;;;;3.80;2.25;;;20.10;60.00;;;20.26;51.66;97979.13;5006300;28;20058;-41
2022/07/04 07:41:00;;;;;;;3.30;2.47;;;20.10;60.60;;;20.12;52.10;97982.06;5007959;28;20247;-40
2022/07/04 07:43:29;;;;;;;9.27;2.67;;;20.00;61.00;;;20.02;51.90;97974.44;5007470;28;20049;-41
2022/07/04 07:45:57;;;;;;;3.45;2.10;;;19.80;61.10;;;20.21;51.98;97970.00;5008770;28;20055;-40
2022/07/04 07:48:25;;;;;;;4.22;2.13;;;20.10;61.10;;;20.38;51.70;97967.63;5007311;28;20058;-40
2022/07/04 07:50:53;;;;;;;4.18;2.30;;;20.30;60.30;;;20.50;51.57;97976.69;5008308;28;20053;-40
2022/07/04 07:53:21;;;;;;;3.55;2.50;;;20.50;60.10;;;20.54;51.42;97968.97;5006787;28;20053;-41
2022/07/04 07:55:49;;;;;;;4.32;2.53;;;20.50;60.00;;;20.65;51.39;97976.44;5007610;28;20066;-41
2022/07/04 07:58:17;;;;;;;4.68;2.13;;;20.60;59.60;;;20.77;51.58;97976.56;5007029;28;20050;-43
2022/07/04 08:00:45;;;;;;;3.53;2.30;;;20.80;59.50;;;20.87;51.46;97973.38;5006584;28;20049;-41
2022/07/04 08:06:11;;;;;;;4.22;2.78;;;20.90;59.10;;;20.94;51.08;97969.56;5006567;28;20087;-40
2022/07/04 08:08:41;;;;;;;3.50;2.50;;;21.00;58.90;;;20.95;50.79;97973.94;5006426;28;20046;-39
2022/07/04 08:11:11;;;;;;;2.45;2.25;;;20.90;58.90;;;21.04;50.71;97969.91;5006822;28;20045;-41
2022/07/04 08:13:40;;;;;;;3.80;2.47;;;21.00;58.70;;;20.90;51.23;97972.91;5005468;28;20065;-40
2022/07/04 08:16:08;;;;;;;3.42;2.40;;;20.80;59.10;;;20.78;51.32;97970.94;5007739;28;20067;-40
2022/07/04 08:18:36;;;;;;;6.38;3.35;;;20.60;60.40;;;20.74;51.59;97967.00;5007693;28;20691;-40
2022/07/04 08:21:05;;;;;;;5.40;2.40;;;20.50;60.30;;;20.76;51.83;97961.38;5007642;28;20514;-40
2022/07/04 08:23:40;;;;;;;2.72;2.13;;;20.60;60.50;;;20.68;51.84;97956.22;5006605;28;20064;-38
2022/07/04 08:26:28;;;;;;;4.35;2.63;;;20.50;60.30;;;20.64;52.28;97962.06;5005478;28;20058;-39
2022/07/04 08:28:59;;;;;;;5.28;2.60;;;20.50;61.10;;;20.69;51.40;97963.31;5004855;28;20061;-38
2022/07/04 08:31:27;;;;;;;4.00;2.72;;;20.50;60.30;;;20.62;51.62;97957.94;5007488;28;20076;-39
2022/07/04 08:34:15;;;;;;;3.80;2.90;;;20.40;60.20;;;20.77;51.06;97953.03;5005649;28;20053;-40
2022/07/04 08:36:43;;;;;;;4.63;2.47;;;20.70;59.70;;;20.88;51.44;97956.09;5005749;28;20056;-39
2022/07/04 08:39:12;;;;;;;5.00;3.08;;;20.90;59.30;;;20.91;51.50;97953.78;5006150;28;20370;-39
2022/07/04 08:41:41;;;;;;;3.05;2.53;;;20.90;59.50;;;20.91;50.94;97944.84;5006861;28;20050;-39
2022/07/04 08:44:11;;;;;;;4.80;3.08;;;20.90;59.20;;;20.92;50.64;97950.03;5006711;28;20056;-39
2022/07/04 08:46:41;;;;;;;2.95;2.30;;;20.90;57.70;;;20.97;50.32;97943.94;5007850;28;20053;-39
2022/07/04 08:49:23;;;;;;;4.65;2.60;;;20.90;58.60;;;21.09;50.25;97944.06;5006791;28;20076;-38
2022/07/04 08:52:12;;;;;;;3.65;2.92;;;21.10;57.90;;;21.21;50.47;97943.13;5006539;28;20077;-39
2022/07/04 09:00:13;;;;;;;3.47;2.70;;;21.30;57.60;;;21.43;49.77;97938.13;5006363;28;20046;-39
2022/07/04 09:02:42;;;;;;;2.65;2.42;;;21.50;57.10;;;21.51;49.12;97945.13;5002790;28;20049;-39
2022/07/04 09:05:15;;;;;;;6.65;2.70;;;21.50;56.10;;;21.58;48.36;97953.22;5024118;28;20060;-39
2022/07/04 09:07:48;;;;;;;6.93;2.80;;;21.70;55.00;;;21.56;48.54;97945.31;5023391;28;20042;-39
2022/07/04 09:10:31;;;;;;;2.72;2.50;;;21.60;55.50;;;21.41;48.74;97951.03;5022141;28;20054;-39
2022/07/04 09:13:06;;;;;;;5.40;3.22;;;21.40;55.70;;;21.54;48.80;97949.28;5021580;28;20059;-39
2022/07/04 09:15:50;;;;;;;2.72;2.42;;;21.50;56.10;;;21.55;48.91;97959.88;5042682;28;20054;-39
2022/07/04 09:18:36;;;;;;;5.97;2.53;;;21.60;56.10;;;21.55;48.68;97959.88;5029343;28;20378;-39
2022/07/04 09:21:13;;;;;;;3.97;3.30;;;21.70;55.50;;;21.65;49.22;97967.50;5042356;28;20067;-39
2022/07/04 09:23:44;;;;;;;3.63;2.10;;;21.80;56.00;;;21.77;48.50;97967.56;5027492;28;20328;-39
2022/07/04 09:26:21;;;;;;;4.03;2.65;;;21.90;55.40;;;21.78;48.69;97964.66;5029857;28;20368;-39
2022/07/04 09:28:56;;;;;;;2.78;2.35;;;21.80;55.80;;;21.86;48.53;97966.22;5028497;28;20049;-40
2022/07/04 09:31:29;;;;;;;2.53;2.33;;;21.90;55.60;;;21.79;48.57;97971.75;5029319;28;20057;-40
2022/07/04 09:34:03;;;;;;;3.35;2.70;;;21.80;55.40;;;21.86;48.48;97974.38;5027010;28;20063;-40
2022/07/04 09:36:55;;;;;;;2.92;2.28;;;21.80;55.10;;;21.81;47.12;97966.91;5027700;28;20057;-39
2022/07/04 09:39:24;;;;;;;7.35;2.72;;;21.80;53.80;;;21.75;48.66;97970.53;5026182;28;20053;-40
2022/07/04 09:42:00;;;;;;;4.53;3.25;;;21.70;55.70;;;21.86;48.35;97974.38;5027896;28;20065;-40
2022/07/04 09:44:44;;;;;;;3.05;2.40;;;21.80;55.70;;;21.97;48.43;97970.09;5028604;28;20049;-40
2022/07/04 09:47:30;;;;;;;3.00;2.00;;;22.10;55.30;;;22.03;47.71;97977.31;5028519;28;20501;-40
2022/07/04 09:50:02;;;;;;;3.92;2.83;;;22.20;53.80;;;21.85;46.83;97971.88;5026744;28;20061;-39
2022/07/04 09:52:31;;;;;;;2.53;2.10;;;22.00;52.80;;;21.90;46.46;97978.28;5024109;28;20057;-40
2022/07/04 09:55:07;;;;;;;3.50;2.10;;;22.10;52.70;;;21.89;46.14;97976.63;5028238;28;20056;-40
2022/07/04 09:57:35;;;;;;;17.83;3.65;;;22.00;51.60;;;21.98;46.86;97983.41;5027045;28;20048;-40
2022/07/04 10:00:24;;;;;;;3.63;2.42;;;22.10;53.10;;;22.03;47.46;97983.53;5028116;28;20049;-39
2022/07/04 10:02:56;;;;;;;2.17;1.80;;;22.20;53.40;;;22.13;46.71;97982.19;5027199;28;20045;-39
2022/07/04 10:05:29;;;;;;;2.50;1.85;;;22.30;52.30;;;22.21;45.36;97979.16;5027905;28;20041;-41
2022/07/04 10:07:58;;;;;;;;;;;22.40;50.40;;;22.26;45.46;97975.81;5027971;28;20052;-39
2022/07/04 10:10:37;;;;;;;3.17;1.60;;;22.50;50.20;;;22.42;45.49;97977.88;5026664;28;19943;-40
2022/07/04 10:13:08;;;;;;;3.17;1.90;;;22.60;50.50;;;22.51;44.84;97983.81;5027056;28;20055;-40
2022/07/04 10:15:42;;;;;;;2.42;2.03;;;22.70;50.10;;;22.42;45.02;97977.88;5028610;28;20072;-39
2022/07/04 10:18:10;;;;;;;2.88;1.85;;;22.70;50.80;;;22.51;45.00;97984.66;5043396;28;20049;-39
2022/07/04 10:20:38;;;;;;;2.00;1.80;;;22.70;50.70;;;22.63;45.20;97976.56;5027422;28;20053;-40
2022/07/04 10:23:07;;;;;;;3.85;2.83;;;22.80;50.40;;;22.74;44.66;97983.91;5027017;28;20057;-40
2022/07/04 10:25:36;;;;;;;4.47;2.40;;;23.00;50.10;;;22.83;44.63;97989.00;5026663;28;20057;-39
2022/07/04 10:28:04;;;;;;;2.78;1.85;;;23.10;49.70;;;22.82;44.65;97988.19;5026674;28;20750;-40
2022/07/04 10:30:38;;;;;;;4.38;1.90;;;23.00;49.60;;;22.86;43.15;97983.13;5026828;28;20061;-39
2022/07/04 10:33:10;;;;;;;4.00;1.70;;;23.10;48.10;;;22.88;43.87;97981.00;5027519;28;20342;-38
2022/07/04 10:36:02;;;;;;;3.50;2.17;;;23.00;48.70;;;22.90;43.14;97978.88;5027675;28;20053;-39
2022/07/04 10:38:48;;;;;;;2.70;1.92;;;23.00;47.20;;;23.02;43.50;97979.72;5027151;28;20752;-39
2022/07/04 10:41:20;;;;;;;4.03;1.90;;;23.20;48.30;;;23.06;43.38;97978.22;5027351;28;20064;-38
2022/07/04 10:43:48;;;;;;;4.43;1.92;;;23.20;48.40;;;23.13;43.50;97983.56;5026799;28;20053;-39
2022/07/04 10:46:16;;;;;;;2.60;1.50;;;23.40;48.50;;;23.25;43.15;97986.28;5026939;28;20232;-40
2022/07/04 10:49:15;;;;;;;3.30;2.20;;;23.50;48.00;;;23.24;42.83;97974.56;5027509;28;20264;-39
2022/07/04 10:51:49;;;;;;;3.15;2.15;;;23.50;47.00;;;23.37;42.82;97973.53;5028106;28;20053;-39